Tropical Cyclones
[Index]
Main Index Home Page Stock Weather Photos Extreme Storms Discussion Storm News and Storm Chasing Reports Tropical Cyclones / Hurricanes / Typhoons Weather Data and Links Wild Fires / Bushfires Weather Observation Techniques Weather Picture Catalogue Tornado Pictures and Reports Stock Video Footage and DVDs for sale
Season 2004-2005 Tropical Cyclone KERRY Track Map
Season 2004-2005 Summaries (Operational Data): [AU] [SIO] [SPAC] [SH]
<<- Previous TC | 2004-2005 Season | Next TC ->>

click for intensity scale information  Lat/long Grid: Show Hide

 Date Labels: Show Hide

Operational Tropical Cyclone Data : JTWC Advisories

Name: KERRY
Number: 0508

03 Jan 2005 06:00 UTC to 15 Jan 2005 12:00 UTC

    date/time    lat    long     hPa   cat  kts
2005-01-03 06    8.0   176.0    1002         20          
2005-01-03 21    9.5   175.5    1000         25          
2005-01-04 06    9.5   175.3    1000         25          
2005-01-04 12   10.0   174.5    1000         30          
2005-01-04 18   10.0   174.0    1000         30          
2005-01-05 00   10.5   173.5     998         30          
2005-01-05 06   11.7   172.9     998         30          
2005-01-05 12   12.1   172.9     997         30          
2005-01-05 18   13.3   171.5     995    1    40          
2005-01-06 00   13.6   171.2     987    1    45          
2005-01-06 06   14.6   170.3     987    1    45          
2005-01-06 12   15.2   169.3     987    1    45          
2005-01-06 18   15.7   168.4     990    1    40          
2005-01-07 00   16.4   166.7     990    1    40          
2005-01-07 06   17.2   164.9     987    1    45          
2005-01-07 12   17.8   163.6     985    2    50          
2005-01-07 18   17.6   162.3     975    2    60          
2005-01-08 00   18.0   161.0     970    3    65          
2005-01-08 06   18.3   160.0     970    3    65          
2005-01-08 12   18.5   159.6     970    3    65          
2005-01-08 18   18.4   159.6     970    3    65          
2005-01-09 00   18.3   159.4     970    3    65          
2005-01-09 06   18.3   159.4     970    3    65          
2005-01-09 12   18.5   159.3     970    3    75          
2005-01-09 18   18.3   159.3     960    3    75          
2005-01-10 00   18.3   159.0     960    3    75          
2005-01-10 06   18.6   159.0     960    3    75          
2005-01-10 12   19.2   159.3     970    3    75          
2005-01-10 18   19.5   159.5     970    3    65          
2005-01-11 00   19.3   159.0     970    3    65          
2005-01-11 06   20.0   159.4     975    2    60          
2005-01-11 12   20.2   159.8     980    2    55          
2005-01-11 18   20.3   159.8     980    2    55          
2005-01-12 00   20.9   160.0     985    2    50          
2005-01-12 06   21.3   160.3     987    1    45          
2005-01-12 12   22.0   160.2     987    1    45          
2005-01-12 18   22.1   160.3     987    1    45          
2005-01-13 00   23.4   160.4     987    1    45          
2005-01-13 06   23.6   159.9     987    1    45          
2005-01-13 12   24.2   159.5     990    1    40          
2005-01-13 18   24.5   159.3     995    1    35          
2005-01-14 00   24.8   158.5     995    1    40          
2005-01-14 06   25.5   158.0     995    1    40          
2005-01-14 12   25.8   158.0     995    1    40          
2005-01-14 18   26.3   157.6     995    1    40          
2005-01-15 00   26.6   156.7     995    1    40          
2005-01-15 06   26.9   156.6     995    1    40          
2005-01-15 12   27.0   156.3    1006         30          
Winds are 10-min average.

Tropical cyclone tracks developed by Michael Bath using operational warnings and advisories and Google Maps.


[Australian Severe Weather index] [Copyright Notice] [Email Contacts] [Search This Site] [Privacy Policy]
Document: tropical_cyclone_kerry.htm Updated: 28 May 2013